Time;durP1;ratioP1;P1;durP2;ratioP2;P2;SDS_P1;SDS_P2;PMS_P1;PMS_P2;Temp;Humidity;BMP_temperature;BMP_pressure;BME280_temperature;BME280_humidity;BME280_pressure;Samples;Min_cycle;Max_cycle;Signal;HPM_P1;HPM_P2
2022/10/18 00:01:20;;;;;;;9.85;5.05;;;;;;;;;;5125860;28;20625;-69
2022/10/18 00:03:47;;;;;;;14.55;5.25;;;;;;;;;;5125478;28;20272;-69
2022/10/18 00:06:13;;;;;;;8.23;4.95;;;;;;;;;;5125757;28;20206;-69
2022/10/18 00:08:39;;;;;;;12.38;5.18;;;;;;;;;;5125350;28;20225;-69
2022/10/18 00:11:06;;;;;;;11.50;4.70;;;;;;;;;;5125676;27;20210;-69
2022/10/18 00:13:34;;;;;;;10.88;5.25;;;;;;;;;;5125495;28;20215;-69
2022/10/18 00:16:01;;;;;;;15.10;4.78;;;;;;;;;;5125424;28;20360;-69
2022/10/18 00:18:28;;;;;;;12.30;5.00;;;;;;;;;;5125458;28;20389;-69
2022/10/18 00:20:58;;;;;;;14.73;5.20;;;;;;;;;;5125195;28;20202;-69
2022/10/18 00:23:24;;;;;;;9.75;4.78;;;;;;;;;;5125394;28;20202;-69
2022/10/18 00:25:58;;;;;;;10.32;5.35;;;;;;;;;;5125303;28;20390;-69
2022/10/18 00:28:24;;;;;;;18.70;5.25;;;;;;;;;;5124932;28;20557;-69
2022/10/18 00:30:51;;;;;;;12.48;5.18;;;;;;;;;;5124986;28;20195;-69
2022/10/18 00:33:18;;;;;;;10.27;4.28;;;;;;;;;;5125107;27;20211;-69
2022/10/18 00:35:44;;;;;;;10.65;4.85;;;;;;;;;;5124948;28;20217;-69
2022/10/18 00:38:10;;;;;;;18.33;4.60;;;;;;;;;;5124618;28;20407;-69
2022/10/18 00:40:36;;;;;;;13.93;4.95;;;;;;;;;;5124800;28;20199;-69
2022/10/18 00:43:03;;;;;;;9.95;4.10;;;;;;;;;;5124790;28;20203;-69
2022/10/18 00:45:29;;;;;;;9.52;3.92;;;;;;;;;;5124544;28;20517;-69
2022/10/18 00:48:04;;;;;;;9.50;4.70;;;;;;;;;;5124457;28;20195;-69
2022/10/18 00:50:31;;;;;;;9.15;4.45;;;;;;;;;;5124732;28;20230;-69
2022/10/18 00:53:00;;;;;;;11.68;4.85;;;;;;;;;;5124584;28;20521;-69
2022/10/18 00:55:27;;;;;;;9.90;4.18;;;;;;;;;;5124616;27;20391;-69
2022/10/18 00:57:55;;;;;;;7.53;4.00;;;;;;;;;;5124256;28;20210;-69
2022/10/18 01:00:22;;;;;;;13.73;5.43;;;;;;;;;;5124593;28;20494;-69
2022/10/18 01:02:48;;;;;;;5.53;4.28;;;;;;;;;;5124602;28;20195;-69
2022/10/18 01:05:17;;;;;;;12.48;5.30;;;;;;;;;;5124478;28;20199;-69
2022/10/18 01:07:59;;;;;;;11.60;4.57;;;;;;;;;;5124035;28;20207;-69
2022/10/18 01:10:28;;;;;;;9.30;4.10;;;;;;;;;;5124146;27;20494;-69
2022/10/18 01:13:02;;;;;;;13.15;4.82;;;;;;;;;;5124569;27;20316;-69
2022/10/18 01:15:30;;;;;;;9.25;4.25;;;;;;;;;;5124284;28;20536;-69
2022/10/18 01:18:01;;;;;;;14.98;5.00;;;;;;;;;;5124061;28;20427;-69
2022/10/18 01:20:38;;;;;;;14.68;4.75;;;;;;;;;;5124229;28;20233;-69
2022/10/18 01:23:05;;;;;;;5.30;4.32;;;;;;;;;;5124276;28;20190;-69
2022/10/18 01:25:41;;;;;;;9.30;4.53;;;;;;;;;;5123905;28;20202;-69
2022/10/18 01:28:13;;;;;;;6.55;4.65;;;;;;;;;;5123746;28;20210;-69
2022/10/18 01:30:52;;;;;;;10.20;4.55;;;;;;;;;;5123963;28;20195;-69
2022/10/18 01:36:23;;;;;;;4.35;3.92;;;;;;;;;;5123642;28;20328;-69
2022/10/18 01:38:51;;;;;;;12.27;4.10;;;;;;;;;;5123433;28;20203;-69
2022/10/18 01:41:18;;;;;;;7.53;4.60;;;;;;;;;;5123726;28;20202;-69
2022/10/18 01:43:46;;;;;;;13.95;4.60;;;;;;;;;;5123540;28;20191;-69
2022/10/18 01:46:15;;;;;;;12.68;4.88;;;;;;;;;;5123704;28;20494;-69
2022/10/18 01:48:42;;;;;;;5.85;4.30;;;;;;;;;;5123543;28;20195;-69
2022/10/18 01:51:08;;;;;;;12.23;4.85;;;;;;;;;;5123646;28;20195;-69
2022/10/18 01:53:35;;;;;;;9.10;4.22;;;;;;;;;;5123248;28;20222;-69
2022/10/18 01:56:10;;;;;;;15.82;4.80;;;;;;;;;;5123370;28;20199;-69
2022/10/18 01:58:38;;;;;;;7.32;4.65;;;;;;;;;;5123413;28;20378;-69
2022/10/18 02:01:06;;;;;;;10.18;5.03;;;;;;;;;;5123434;28;20195;-69
2022/10/18 02:03:34;;;;;;;12.10;5.03;;;;;;;;;;5123297;28;20195;-70
2022/10/18 02:06:05;;;;;;;10.55;4.35;;;;;;;;;;5123267;28;20394;-69
2022/10/18 02:08:34;;;;;;;16.65;5.88;;;;;;;;;;5122944;28;20194;-69
2022/10/18 02:11:02;;;;;;;7.88;4.35;;;;;;;;;;5123361;28;20203;-69
2022/10/18 02:13:29;;;;;;;12.88;4.63;;;;;;;;;;5123188;28;20223;-70
2022/10/18 02:15:58;;;;;;;7.28;4.70;;;;;;;;;;5123562;27;20381;-69
2022/10/18 02:18:27;;;;;;;10.85;4.60;;;;;;;;;;5122808;28;20497;-69
2022/10/18 02:20:56;;;;;;;11.80;5.32;;;;;;;;;;5122917;28;20195;-69
2022/10/18 02:23:24;;;;;;;12.00;4.60;;;;;;;;;;5123170;28;20201;-69
2022/10/18 02:25:50;;;;;;;8.75;4.97;;;;;;;;;;5123449;28;20195;-70
2022/10/18 02:28:17;;;;;;;9.38;5.25;;;;;;;;;;5122682;28;20221;-70
2022/10/18 02:30:47;;;;;;;9.40;4.60;;;;;;;;;;5122891;28;20380;-69
2022/10/18 02:33:16;;;;;;;11.10;4.60;;;;;;;;;;5122922;28;20195;-69
2022/10/18 02:35:45;;;;;;;8.80;4.47;;;;;;;;;;5122489;28;20553;-69
2022/10/18 02:38:14;;;;;;;8.07;4.47;;;;;;;;;;5122603;28;20264;-69
2022/10/18 02:40:40;;;;;;;15.57;4.78;;;;;;;;;;5122961;28;20453;-69
2022/10/18 02:43:07;;;;;;;7.80;4.63;;;;;;;;;;5122781;28;20195;-69
2022/10/18 02:45:33;;;;;;;10.23;4.68;;;;;;;;;;5121655;28;20191;-69
2022/10/18 02:47:59;;;;;;;9.60;4.65;;;;;;;;;;5122252;28;20195;-69
2022/10/18 02:50:26;;;;;;;10.52;4.90;;;;;;;;;;5122437;28;20502;-69
2022/10/18 02:52:52;;;;;;;9.50;4.47;;;;;;;;;;5122421;28;20203;-69
2022/10/18 02:55:20;;;;;;;7.75;4.10;;;;;;;;;;5122295;28;20230;-69
2022/10/18 02:57:46;;;;;;;4.93;4.53;;;;;;;;;;5122201;28;20195;-69
2022/10/18 03:00:13;;;;;;;7.00;4.32;;;;;;;;;;5122344;28;20194;-69
2022/10/18 03:02:39;;;;;;;8.45;4.25;;;;;;;;;;5122242;28;20215;-69
2022/10/18 03:05:05;;;;;;;10.43;4.57;;;;;;;;;;5122351;28;20202;-69
2022/10/18 03:07:32;;;;;;;7.03;4.53;;;;;;;;;;5122388;28;20195;-69
2022/10/18 03:09:58;;;;;;;5.95;4.15;;;;;;;;;;5122207;28;20199;-70
2022/10/18 03:12:26;;;;;;;8.00;4.22;;;;;;;;;;5122295;28;20199;-69
2022/10/18 03:14:52;;;;;;;12.25;4.32;;;;;;;;;;5122046;28;20248;-69
2022/10/18 03:17:18;;;;;;;6.28;4.10;;;;;;;;;;5122078;28;20195;-69
2022/10/18 03:19:44;;;;;;;8.60;4.53;;;;;;;;;;5122185;28;20195;-69
2022/10/18 03:22:11;;;;;;;7.63;4.45;;;;;;;;;;5122136;28;20199;-69
2022/10/18 03:24:37;;;;;;;8.38;4.07;;;;;;;;;;5122230;28;20195;-69
2022/10/18 03:27:03;;;;;;;7.03;3.92;;;;;;;;;;5122129;28;20195;-69
2022/10/18 03:29:31;;;;;;;12.85;4.40;;;;;;;;;;5121823;28;20229;-69
2022/10/18 03:31:57;;;;;;;8.93;4.00;;;;;;;;;;5122019;28;20516;-69
2022/10/18 03:34:23;;;;;;;7.28;3.80;;;;;;;;;;5122095;28;20219;-69
2022/10/18 03:36:50;;;;;;;4.88;4.18;;;;;;;;;;5122068;28;20202;-69
2022/10/18 03:39:16;;;;;;;11.70;5.70;;;;;;;;;;5121996;28;20403;-70
2022/10/18 03:41:42;;;;;;;6.38;4.90;;;;;;;;;;5122161;28;20195;-69
2022/10/18 03:44:09;;;;;;;12.52;5.10;;;;;;;;;;5122028;28;20198;-69
2022/10/18 03:46:36;;;;;;;11.68;4.95;;;;;;;;;;5122028;28;20205;-69
2022/10/18 03:49:03;;;;;;;5.97;4.38;;;;;;;;;;5121852;28;20517;-69
2022/10/18 03:51:29;;;;;;;14.38;4.13;;;;;;;;;;5122028;28;20499;-69
2022/10/18 03:53:56;;;;;;;7.68;4.22;;;;;;;;;;5122071;28;20195;-69
2022/10/18 03:56:22;;;;;;;10.20;4.75;;;;;;;;;;5123590;28;20240;-69
2022/10/18 03:58:48;;;;;;;10.07;4.45;;;;;;;;;;5125506;28;20205;-69
2022/10/18 04:01:15;;;;;;;11.75;4.55;;;;;;;;;;5125571;28;20196;-69
2022/10/18 04:03:42;;;;;;;10.20;4.57;;;;;;;;;;5125686;28;20210;-69
2022/10/18 04:06:08;;;;;;;15.23;4.40;;;;;;;;;;5125735;28;20199;-69
2022/10/18 04:08:35;;;;;;;11.48;4.60;;;;;;;;;;5125162;27;20195;-69
2022/10/18 04:11:04;;;;;;;8.68;4.55;;;;;;;;;;5125401;28;20203;-69
2022/10/18 04:13:30;;;;;;;5.10;4.63;;;;;;;;;;5125433;28;20195;-69
2022/10/18 04:15:56;;;;;;;9.77;4.90;;;;;;;;;;5125454;28;20219;-69
2022/10/18 04:18:23;;;;;;;14.73;5.35;;;;;;;;;;5125374;28;20506;-69
2022/10/18 04:20:50;;;;;;;10.50;5.15;;;;;;;;;;5125670;28;20404;-69
2022/10/18 04:23:17;;;;;;;7.72;5.10;;;;;;;;;;5125323;28;20195;-69
2022/10/18 04:25:43;;;;;;;16.55;4.72;;;;;;;;;;5125151;28;20192;-69
2022/10/18 04:28:09;;;;;;;10.35;5.40;;;;;;;;;;5124782;28;20234;-69
2022/10/18 04:30:35;;;;;;;10.48;4.68;;;;;;;;;;5125294;28;20202;-69
2022/10/18 04:33:02;;;;;;;12.05;4.60;;;;;;;;;;5125168;28;20473;-69
2022/10/18 04:35:28;;;;;;;11.30;4.63;;;;;;;;;;5125110;28;20224;-69
2022/10/18 04:37:55;;;;;;;11.00;4.60;;;;;;;;;;5124744;28;20203;-69
2022/10/18 04:40:22;;;;;;;9.95;4.25;;;;;;;;;;5124957;27;20198;-69
2022/10/18 04:42:48;;;;;;;8.68;4.45;;;;;;;;;;5124708;28;20524;-69
2022/10/18 04:45:14;;;;;;;11.88;4.57;;;;;;;;;;5124940;28;20191;-69
2022/10/18 04:47:40;;;;;;;8.63;4.35;;;;;;;;;;5124546;28;20195;-69
2022/10/18 04:50:07;;;;;;;11.43;4.75;;;;;;;;;;5124848;28;20524;-69
2022/10/18 04:52:33;;;;;;;14.65;4.15;;;;;;;;;;5124764;28;20209;-69
2022/10/18 04:55:01;;;;;;;10.85;4.75;;;;;;;;;;5124441;28;20226;-69
2022/10/18 04:57:27;;;;;;;9.52;5.88;;;;;;;;;;5124454;28;20201;-69
2022/10/18 04:59:54;;;;;;;15.98;5.55;;;;;;;;;;5124589;28;20359;-69
2022/10/18 05:02:20;;;;;;;4.15;3.90;;;;;;;;;;5124466;27;20202;-69
2022/10/18 05:04:46;;;;;;;6.15;4.47;;;;;;;;;;5124553;28;20197;-69
2022/10/18 05:07:12;;;;;;;8.70;4.10;;;;;;;;;;5123567;28;20205;-69
2022/10/18 05:09:39;;;;;;;9.45;4.25;;;;;;;;;;5123860;28;20222;-69
2022/10/18 05:12:06;;;;;;;12.23;5.10;;;;;;;;;;5124128;28;20201;-69
2022/10/18 05:14:33;;;;;;;7.38;4.15;;;;;;;;;;5124368;28;20532;-69
2022/10/18 05:16:59;;;;;;;7.35;4.53;;;;;;;;;;5124266;28;20392;-69
2022/10/18 05:19:25;;;;;;;9.55;5.07;;;;;;;;;;5123951;27;20195;-69
2022/10/18 05:21:52;;;;;;;5.45;4.07;;;;;;;;;;5124102;28;20199;-69
2022/10/18 05:24:18;;;;;;;11.77;5.13;;;;;;;;;;5123924;28;20202;-69
2022/10/18 05:26:44;;;;;;;15.55;4.65;;;;;;;;;;5124012;27;20203;-72
2022/10/18 05:29:12;;;;;;;13.63;5.45;;;;;;;;;;5123799;28;20214;-72
2022/10/18 05:31:38;;;;;;;12.63;4.68;;;;;;;;;;5124366;28;20202;-72
2022/10/18 05:34:04;;;;;;;8.95;4.97;;;;;;;;;;5123831;28;20195;-72
2022/10/18 05:36:30;;;;;;;10.90;5.38;;;;;;;;;;5124111;28;20518;-72
2022/10/18 05:38:57;;;;;;;13.05;5.90;;;;;;;;;;5123384;28;20202;-72
2022/10/18 05:41:23;;;;;;;15.38;5.30;;;;;;;;;;5123776;28;20202;-72
2022/10/18 05:43:49;;;;;;;11.07;5.00;;;;;;;;;;5124010;28;20508;-72
2022/10/18 05:46:17;;;;;;;14.32;4.88;;;;;;;;;;5124221;28;20206;-72
2022/10/18 05:48:43;;;;;;;8.15;4.97;;;;;;;;;;5123872;28;20527;-72
2022/10/18 05:51:10;;;;;;;10.60;4.13;;;;;;;;;;5123619;28;20199;-72
2022/10/18 05:53:36;;;;;;;11.07;4.68;;;;;;;;;;5123394;28;20225;-73
2022/10/18 05:56:02;;;;;;;10.40;4.75;;;;;;;;;;5123300;28;20219;-73
2022/10/18 05:58:28;;;;;;;15.50;5.03;;;;;;;;;;5123412;28;20577;-73
2022/10/18 06:00:57;;;;;;;12.52;5.15;;;;;;;;;;5123482;28;20195;-73
2022/10/18 06:03:26;;;;;;;7.20;4.65;;;;;;;;;;5123333;28;20240;-73
2022/10/18 06:05:52;;;;;;;14.15;4.57;;;;;;;;;;5123748;28;20195;-73
2022/10/18 06:08:18;;;;;;;10.15;4.43;;;;;;;;;;5122875;28;20201;-73
2022/10/18 06:10:45;;;;;;;8.23;4.90;;;;;;;;;;5123247;27;20202;-73
2022/10/18 06:13:11;;;;;;;15.70;5.43;;;;;;;;;;5123206;28;20397;-73
2022/10/18 06:15:37;;;;;;;9.77;5.35;;;;;;;;;;5123149;28;20215;-73
2022/10/18 06:18:03;;;;;;;12.93;5.85;;;;;;;;;;5122891;28;20202;-73
2022/10/18 06:20:31;;;;;;;18.65;6.80;;;;;;;;;;5122895;27;20194;-73
2022/10/18 06:22:57;;;;;;;13.13;5.72;;;;;;;;;;5122947;28;20502;-73
2022/10/18 06:25:24;;;;;;;19.05;6.28;;;;;;;;;;5122963;28;20416;-72
2022/10/18 06:27:50;;;;;;;16.67;6.35;;;;;;;;;;5100888;28;20249;-72
2022/10/18 06:30:16;;;;;;;15.65;5.82;;;;;;;;;;5109014;28;20215;-72
2022/10/18 06:32:42;;;;;;;9.73;5.60;;;;;;;;;;5116863;28;20221;-72
2022/10/18 06:35:09;;;;;;;11.77;5.47;;;;;;;;;;5114142;28;20454;-59
2022/10/18 06:37:37;;;;;;;20.35;5.90;;;;;;;;;;5112045;28;20234;-59
2022/10/18 06:40:03;;;;;;;15.30;5.25;;;;;;;;;;5114088;27;20248;-58
2022/10/18 06:42:30;;;;;;;10.15;5.35;;;;;;;;;;5114131;28;20588;-59
2022/10/18 06:44:56;;;;;;;16.88;5.32;;;;;;;;;;5114453;28;20455;-59
2022/10/18 06:47:23;;;;;;;16.90;5.53;;;;;;;;;;5113165;28;20398;-59
2022/10/18 06:49:49;;;;;;;9.32;4.75;;;;;;;;;;5113863;28;20210;-59
2022/10/18 06:52:16;;;;;;;15.13;4.95;;;;;;;;;;5113950;28;20245;-58
2022/10/18 06:54:44;;;;;;;9.38;4.80;;;;;;;;;;5113168;28;20218;-59
2022/10/18 06:57:10;;;;;;;11.45;5.07;;;;;;;;;;5114987;28;20309;-59
2022/10/18 06:59:37;;;;;;;10.00;4.70;;;;;;;;;;5113790;28;20237;-59
2022/10/18 07:02:03;;;;;;;16.35;4.60;;;;;;;;;;5114902;28;20605;-59
2022/10/18 07:04:29;;;;;;;8.40;4.30;;;;;;;;;;5114548;28;21077;-60
2022/10/18 07:06:55;;;;;;;11.80;4.88;;;;;;;;;;5114344;28;20214;-58
2022/10/18 07:09:22;;;;;;;11.15;4.65;;;;;;;;;;5114850;28;20214;-59
2022/10/18 07:11:51;;;;;;;7.10;4.55;;;;;;;;;;5115833;28;20207;-59
2022/10/18 07:14:17;;;;;;;6.88;4.30;;;;;;;;;;5114736;28;21793;-59
2022/10/18 07:16:44;;;;;;;11.00;4.07;;;;;;;;;;5114509;28;20565;-59
2022/10/18 07:19:11;;;;;;;6.75;4.75;;;;;;;;;;5114867;28;20213;-59
2022/10/18 07:21:37;;;;;;;9.93;4.43;;;;;;;;;;5114438;28;20217;-58
2022/10/18 07:24:03;;;;;;;7.18;3.83;;;;;;;;;;5108957;28;20219;-59
2022/10/18 07:26:30;;;;;;;9.57;4.50;;;;;;;;;;5114194;28;20213;-60
2022/10/18 07:29:00;;;;;;;7.65;3.90;;;;;;;;;;5115143;28;20231;-60
2022/10/18 07:31:26;;;;;;;11.10;4.45;;;;;;;;;;5116399;28;20234;-57
2022/10/18 07:33:52;;;;;;;5.53;4.03;;;;;;;;;;5120152;28;20210;-58
2022/10/18 07:36:20;;;;;;;6.28;4.07;;;;;;;;;;5117721;28;20257;-58
2022/10/18 07:38:46;;;;;;;14.35;4.18;;;;;;;;;;5118382;28;20219;-59
2022/10/18 07:41:13;;;;;;;7.82;4.30;;;;;;;;;;5119384;28;20211;-58
2022/10/18 07:43:41;;;;;;;8.30;3.65;;;;;;;;;;5119369;28;20218;-58
2022/10/18 07:46:08;;;;;;;11.00;3.67;;;;;;;;;;5117971;28;20211;-59
2022/10/18 07:48:35;;;;;;;9.73;3.88;;;;;;;;;;5119046;28;20217;-59
2022/10/18 07:51:01;;;;;;;9.25;4.65;;;;;;;;;;5119082;28;20251;-58
2022/10/18 07:53:28;;;;;;;14.90;4.55;;;;;;;;;;5117930;28;20211;-58
2022/10/18 07:55:56;;;;;;;11.40;4.15;;;;;;;;;;5118213;28;20472;-58
2022/10/18 07:58:23;;;;;;;6.97;3.63;;;;;;;;;;5117544;28;20450;-59
2022/10/18 08:00:49;;;;;;;12.20;3.90;;;;;;;;;;5117768;28;20211;-58
2022/10/18 08:03:16;;;;;;;7.72;4.00;;;;;;;;;;5118488;28;20330;-58
2022/10/18 08:05:43;;;;;;;8.05;4.20;;;;;;;;;;5117723;28;20199;-58
2022/10/18 08:08:09;;;;;;;5.43;3.85;;;;;;;;;;5117284;28;20206;-58
2022/10/18 08:10:36;;;;;;;12.38;4.38;;;;;;;;;;5118776;28;20604;-58
2022/10/18 08:13:02;;;;;;;10.63;4.15;;;;;;;;;;5118852;28;20211;-58
2022/10/18 08:15:28;;;;;;;14.05;4.93;;;;;;;;;;5118203;28;20524;-57
2022/10/18 08:17:55;;;;;;;7.28;4.50;;;;;;;;;;5117870;28;20211;-58
2022/10/18 08:20:22;;;;;;;8.13;4.18;;;;;;;;;;5117930;27;20283;-58
2022/10/18 08:22:49;;;;;;;9.48;4.20;;;;;;;;;;5117935;27;20544;-59
2022/10/18 08:25:16;;;;;;;7.05;4.05;;;;;;;;;;5118576;27;20210;-59
2022/10/18 08:27:42;;;;;;;5.10;4.43;;;;;;;;;;5117824;28;20248;-58
2022/10/18 08:30:09;;;;;;;7.35;4.32;;;;;;;;;;5118231;28;20217;-58
2022/10/18 08:32:35;;;;;;;10.00;3.88;;;;;;;;;;5118187;28;20540;-58
2022/10/18 08:35:01;;;;;;;13.43;4.95;;;;;;;;;;5117302;28;20473;-58
2022/10/18 08:37:29;;;;;;;11.90;4.50;;;;;;;;;;5116236;28;20561;-61
2022/10/18 08:39:55;;;;;;;11.52;4.93;;;;;;;;;;5118069;28;20213;-60
2022/10/18 08:42:43;;;;;;;9.40;4.75;;;;;;;;;;5116413;28;20211;-59
2022/10/18 08:45:10;;;;;;;17.73;4.78;;;;;;;;;;5113014;28;20267;-59
2022/10/18 08:47:38;;;;;;;13.02;4.43;;;;;;;;;;5118265;28;20211;-60
2022/10/18 08:50:05;;;;;;;8.88;3.70;;;;;;;;;;5117943;28;20199;-59
2022/10/18 08:52:35;;;;;;;10.25;3.85;;;;;;;;;;5117163;28;20222;-60
2022/10/18 08:55:02;;;;;;;5.70;3.65;;;;;;;;;;5117343;28;20214;-60
2022/10/18 08:57:29;;;;;;;12.50;3.65;;;;;;;;;;5117246;28;20540;-60
2022/10/18 08:59:56;;;;;;;11.23;3.67;;;;;;;;;;5117222;28;20439;-60
2022/10/18 09:02:29;;;;;;;6.70;3.33;;;;;;;;;;5117830;28;20210;-60
2022/10/18 09:04:58;;;;;;;12.93;3.95;;;;;;;;;;5117657;28;20646;-60
2022/10/18 09:07:45;;;;;;;9.35;4.65;;;;;;;;;;5116846;28;20211;-60
2022/10/18 09:10:19;;;;;;;12.88;4.95;;;;;;;;;;5117385;28;20282;-60
2022/10/18 09:12:52;;;;;;;9.00;5.45;;;;;;;;;;5117881;28;20217;-58
2022/10/18 09:15:23;;;;;;;9.65;5.78;;;;;;;;;;5116100;28;20215;-59
2022/10/18 09:17:57;;;;;;;8.98;5.15;;;;;;;;;;5115842;28;20234;-59
2022/10/18 09:20:25;;;;;;;8.77;5.05;;;;;;;;;;5117414;27;20372;-59
2022/10/18 09:22:53;;;;;;;10.20;4.43;;;;;;;;;;5116340;28;20290;-58
2022/10/18 09:25:24;;;;;;;17.65;4.63;;;;;;;;;;5116613;28;20211;-59
2022/10/18 09:27:57;;;;;;;13.27;4.80;;;;;;;;;;5116951;28;20575;-59
2022/10/18 09:30:29;;;;;;;11.05;4.10;;;;;;;;;;5116623;28;20259;-59
2022/10/18 09:32:59;;;;;;;11.38;4.43;;;;;;;;;;5117860;28;20207;-59
2022/10/18 09:35:29;;;;;;;13.80;4.68;;;;;;;;;;5116765;28;20214;-58
2022/10/18 09:38:03;;;;;;;13.05;4.80;;;;;;;;;;5115633;28;20565;-58
2022/10/18 09:40:31;;;;;;;17.88;5.70;;;;;;;;;;5115530;28;20203;-58
2022/10/18 09:42:59;;;;;;;14.45;4.40;;;;;;;;;;5116212;28;20518;-59
2022/10/18 09:45:27;;;;;;;18.17;5.50;;;;;;;;;;5117245;28;20211;-59
2022/10/18 09:47:57;;;;;;;19.08;5.10;;;;;;;;;;5116907;27;20412;-59
2022/10/18 09:50:25;;;;;;;18.52;4.65;;;;;;;;;;5117005;28;20522;-59
2022/10/18 09:52:54;;;;;;;17.35;5.10;;;;;;;;;;5116563;28;20218;-59
2022/10/18 09:55:25;;;;;;;11.25;4.50;;;;;;;;;;5115870;28;20215;-59
2022/10/18 09:57:53;;;;;;;7.90;4.25;;;;;;;;;;5116575;28;20464;-59
2022/10/18 10:00:22;;;;;;;7.97;4.00;;;;;;;;;;5117067;28;20210;-59
2022/10/18 10:02:48;;;;;;;8.60;4.00;;;;;;;;;;5116045;28;20215;-59
2022/10/18 10:05:15;;;;;;;12.82;4.75;;;;;;;;;;5116970;28;20218;-59
2022/10/18 10:07:42;;;;;;;7.88;3.60;;;;;;;;;;5114976;28;20417;-60
2022/10/18 10:10:13;;;;;;;5.93;3.30;;;;;;;;;;5115674;27;21090;-60
2022/10/18 10:12:41;;;;;;;4.63;3.35;;;;;;;;;;5115675;28;20211;-60
2022/10/18 10:15:08;;;;;;;14.65;3.78;;;;;;;;;;5115469;28;20217;-60
2022/10/18 10:17:35;;;;;;;15.68;3.70;;;;;;;;;;5115882;28;20222;-59
2022/10/18 10:20:03;;;;;;;14.35;3.78;;;;;;;;;;5115847;28;20211;-60
2022/10/18 10:22:33;;;;;;;8.73;3.30;;;;;;;;;;5115244;27;20217;-60
2022/10/18 10:24:59;;;;;;;8.55;3.65;;;;;;;;;;5115494;28;20217;-60
2022/10/18 10:27:29;;;;;;;7.43;3.40;;;;;;;;;;5115789;28;20207;-60
2022/10/18 10:29:58;;;;;;;9.82;3.55;;;;;;;;;;5113213;28;20233;-60
2022/10/18 10:32:26;;;;;;;7.60;3.20;;;;;;;;;;5116165;28;20217;-60
2022/10/18 10:34:53;;;;;;;6.05;3.08;;;;;;;;;;5115352;28;20391;-60
2022/10/18 10:37:24;;;;;;;5.38;3.17;;;;;;;;;;5114573;28;20226;-60
2022/10/18 10:40:04;;;;;;;5.55;2.90;;;;;;;;;;5115449;28;20234;-60
2022/10/18 10:42:32;;;;;;;6.07;3.15;;;;;;;;;;5114253;28;20531;-59
2022/10/18 10:45:01;;;;;;;4.18;3.30;;;;;;;;;;5115888;28;20505;-60
2022/10/18 10:47:28;;;;;;;12.57;3.30;;;;;;;;;;5115004;28;20198;-56
2022/10/18 10:49:56;;;;;;;6.43;3.45;;;;;;;;;;5115988;28;20214;-60
2022/10/18 10:52:26;;;;;;;11.25;3.38;;;;;;;;;;5116045;28;20210;-60
2022/10/18 10:54:53;;;;;;;9.32;2.95;;;;;;;;;;5105656;28;20742;-60
2022/10/18 10:57:21;;;;;;;3.92;2.80;;;;;;;;;;5115168;28;20410;-60
2022/10/18 10:59:48;;;;;;;6.03;3.00;;;;;;;;;;5114381;28;20386;-59
2022/10/18 11:02:21;;;;;;;7.18;3.20;;;;;;;;;;5115452;28;20502;-60
2022/10/18 11:04:48;;;;;;;9.60;3.30;;;;;;;;;;5114426;28;20447;-60
2022/10/18 11:07:20;;;;;;;5.07;3.00;;;;;;;;;;5113810;28;20502;-59
2022/10/18 11:09:53;;;;;;;4.72;2.92;;;;;;;;;;5113945;28;20382;-59
2022/10/18 11:12:27;;;;;;;7.68;2.95;;;;;;;;;;5115848;28;20301;-59
2022/10/18 11:14:57;;;;;;;6.38;3.20;;;;;;;;;;5115059;28;20214;-59
2022/10/18 11:17:26;;;;;;;4.72;2.95;;;;;;;;;;5111720;28;20221;-59
2022/10/18 11:20:02;;;;;;;6.57;2.65;;;;;;;;;;5112439;28;20234;-59
2022/10/18 11:22:31;;;;;;;5.82;2.63;;;;;;;;;;5113258;28;20438;-59
2022/10/18 11:24:57;;;;;;;8.57;2.95;;;;;;;;;;5106936;28;20206;-60
2022/10/18 11:27:25;;;;;;;4.22;2.50;;;;;;;;;;5115314;28;20436;-60
2022/10/18 11:30:01;;;;;;;8.10;2.90;;;;;;;;;;5114032;28;20394;-58
2022/10/18 11:32:33;;;;;;;9.75;2.88;;;;;;;;;;5111293;28;20424;-59
2022/10/18 11:35:04;;;;;;;7.93;2.92;;;;;;;;;;5115517;28;20203;-59
2022/10/18 11:37:39;;;;;;;3.67;2.40;;;;;;;;;;5112752;28;20214;-59
2022/10/18 11:40:11;;;;;;;6.55;3.38;;;;;;;;;;5114950;28;20210;-60
2022/10/18 11:42:43;;;;;;;7.43;3.00;;;;;;;;;;5115582;28;20213;-59
2022/10/18 11:45:14;;;;;;;7.70;2.50;;;;;;;;;;5115181;28;20207;-59
2022/10/18 11:47:46;;;;;;;7.15;2.92;;;;;;;;;;5113940;28;20213;-59
2022/10/18 11:50:15;;;;;;;6.43;2.60;;;;;;;;;;5115430;28;20210;-59
2022/10/18 11:52:49;;;;;;;5.30;3.10;;;;;;;;;;5114391;28;20419;-59
2022/10/18 11:55:27;;;;;;;6.55;2.55;;;;;;;;;;5115132;28;20266;-59
2022/10/18 11:57:57;;;;;;;5.00;2.67;;;;;;;;;;5114631;28;20254;-60
2022/10/18 12:00:28;;;;;;;4.00;2.58;;;;;;;;;;5114512;28;20211;-59
2022/10/18 12:03:01;;;;;;;5.00;2.40;;;;;;;;;;5106577;28;20207;-59
2022/10/18 12:05:29;;;;;;;7.50;2.35;;;;;;;;;;5115863;28;20206;-59
2022/10/18 12:07:59;;;;;;;3.83;2.25;;;;;;;;;;5114588;28;20213;-59
2022/10/18 12:10:28;;;;;;;2.35;2.15;;;;;;;;;;5115258;28;20435;-59
2022/10/18 12:12:57;;;;;;;2.60;2.40;;;;;;;;;;5115132;28;20521;-60
2022/10/18 12:15:25;;;;;;;7.47;2.58;;;;;;;;;;5115902;28;20217;-59
2022/10/18 12:17:53;;;;;;;6.32;2.55;;;;;;;;;;5116327;28;20232;-58
2022/10/18 12:20:23;;;;;;;5.32;2.40;;;;;;;;;;5119443;28;20205;-59
2022/10/18 12:22:52;;;;;;;5.22;2.40;;;;;;;;;;5112671;28;20201;-59
2022/10/18 12:25:19;;;;;;;6.18;2.97;;;;;;;;;;5117737;27;20217;-59
2022/10/18 12:27:48;;;;;;;5.15;3.00;;;;;;;;;;5118027;28;20624;-59
2022/10/18 12:30:20;;;;;;;5.65;3.13;;;;;;;;;;5116644;28;20217;-59
2022/10/18 12:32:47;;;;;;;12.60;2.88;;;;;;;;;;5118712;28;20199;-59
2022/10/18 12:35:15;;;;;;;4.70;2.60;;;;;;;;;;5118399;28;20217;-59
2022/10/18 12:37:51;;;;;;;2.55;2.35;;;;;;;;;;5117044;28;20233;-59
2022/10/18 12:40:20;;;;;;;7.32;2.78;;;;;;;;;;5117658;27;20217;-60
2022/10/18 12:42:47;;;;;;;10.13;2.72;;;;;;;;;;5117699;27;20210;-60
2022/10/18 12:45:22;;;;;;;7.68;2.50;;;;;;;;;;5117652;28;20509;-59
2022/10/18 12:47:49;;;;;;;2.88;2.00;;;;;;;;;;5118154;28;20210;-59
2022/10/18 12:50:25;;;;;;;5.28;2.42;;;;;;;;;;5118697;28;20305;-59
2022/10/18 12:53:02;;;;;;;3.40;2.30;;;;;;;;;;5118548;28;20222;-60
2022/10/18 12:55:30;;;;;;;5.82;2.42;;;;;;;;;;5109757;28;20210;-60
2022/10/18 12:58:17;;;;;;;6.97;2.17;;;;;;;;;;5118055;28;20283;-59
2022/10/18 13:00:56;;;;;;;7.47;2.03;;;;;;;;;;5111962;28;20210;-59
2022/10/18 13:03:57;;;;;;;4.93;1.98;;;;;;;;;;5117878;28;20210;-59
2022/10/18 13:06:23;;;;;;;6.13;1.65;;;;;;;;;;5054471;28;20212;-59
2022/10/18 13:09:04;;;;;;;4.22;1.90;;;;;;;;;;5054066;28;20478;-59
2022/10/18 13:11:35;;;;;;;7.80;1.90;;;;;;;;;;5087921;28;20241;-60
2022/10/18 13:14:19;;;;;;;5.57;1.80;;;;;;;;;;5117662;27;20226;-58
2022/10/18 13:16:48;;;;;;;3.45;1.70;;;;;;;;;;5117358;28;20217;-58
2022/10/18 13:19:20;;;;;;;5.50;2.17;;;;;;;;;;5117571;28;20219;-58
2022/10/18 13:21:50;;;;;;;4.68;2.00;;;;;;;;;;5117385;28;20214;-58
2022/10/18 13:24:23;;;;;;;8.15;2.03;;;;;;;;;;5116645;28;20221;-58
2022/10/18 13:26:56;;;;;;;2.65;1.50;;;;;;;;;;5117045;27;20522;-58
2022/10/18 13:29:28;;;;;;;7.38;2.42;;;;;;;;;;5116155;28;20234;-58
2022/10/18 13:31:57;;;;;;;5.47;2.22;;;;;;;;;;5116312;27;20210;-58
2022/10/18 13:34:25;;;;;;;2.28;2.10;;;;;;;;;;5117303;28;20420;-58
2022/10/18 13:36:58;;;;;;;4.47;2.17;;;;;;;;;;5116670;28;20217;-58
2022/10/18 13:39:25;;;;;;;5.93;2.03;;;;;;;;;;5116735;28;20218;-58
2022/10/18 13:42:09;;;;;;;2.78;2.40;;;;;;;;;;5117004;28;20430;-58
2022/10/18 13:44:39;;;;;;;4.93;2.33;;;;;;;;;;5117645;28;20211;-58
2022/10/18 13:47:10;;;;;;;3.45;2.10;;;;;;;;;;5117052;28;20545;-58
2022/10/18 13:49:39;;;;;;;5.95;1.85;;;;;;;;;;5117541;28;20439;-59
2022/10/18 13:52:08;;;;;;;3.80;2.30;;;;;;;;;;5117563;28;20221;-59
2022/10/18 13:54:51;;;;;;;3.00;2.40;;;;;;;;;;5116246;28;20216;-58
2022/10/18 13:57:25;;;;;;;3.97;1.80;;;;;;;;;;5116311;28;20231;-59
2022/10/18 14:00:03;;;;;;;4.85;1.92;;;;;;;;;;5115901;28;20221;-58
2022/10/18 14:02:48;;;;;;;6.18;1.60;;;;;;;;;;5116425;28;20546;-58
2022/10/18 14:05:19;;;;;;;2.33;1.40;;;;;;;;;;5116259;28;20217;-59
2022/10/18 14:07:46;;;;;;;1.38;1.27;;;;;;;;;;5115824;28;20207;-59
2022/10/18 14:10:19;;;;;;;3.10;1.52;;;;;;;;;;5115780;28;20217;-59
2022/10/18 14:12:47;;;;;;;1.40;1.30;;;;;;;;;;5116842;28;20421;-59
2022/10/18 14:15:17;;;;;;;1.65;1.52;;;;;;;;;;5116647;28;20579;-59
2022/10/18 14:17:44;;;;;;;4.95;1.55;;;;;;;;;;5115599;28;20230;-59
2022/10/18 14:20:17;;;;;;;2.92;1.40;;;;;;;;;;5116718;28;20226;-59
2022/10/18 14:22:46;;;;;;;2.50;1.55;;;;;;;;;;5116277;28;20213;-59
2022/10/18 14:25:19;;;;;;;6.22;1.40;;;;;;;;;;5115519;28;20211;-59
2022/10/18 14:27:46;;;;;;;1.95;1.50;;;;;;;;;;5115812;28;20478;-59
2022/10/18 14:30:14;;;;;;;2.85;1.58;;;;;;;;;;5115928;28;20211;-59
2022/10/18 14:32:44;;;;;;;2.78;1.35;;;;;;;;;;5116209;27;20214;-59
2022/10/18 14:35:16;;;;;;;4.47;1.70;;;;;;;;;;5115718;28;20210;-59
2022/10/18 14:37:43;;;;;;;6.80;1.63;;;;;;;;;;5114676;28;20227;-59
2022/10/18 14:40:24;;;;;;;4.15;1.60;;;;;;;;;;5115716;28;20210;-59
2022/10/18 14:42:50;;;;;;;4.75;2.20;;;;;;;;;;5116575;28;20577;-59
2022/10/18 14:45:17;;;;;;;6.82;1.77;;;;;;;;;;5115778;28;20402;-59
2022/10/18 14:47:46;;;;;;;3.05;1.70;;;;;;;;;;5114833;28;20425;-59
2022/10/18 14:50:20;;;;;;;1.73;1.60;;;;;;;;;;5116220;28;20199;-58